Time;durP1;ratioP1;P1;durP2;ratioP2;P2;SDS_P1;SDS_P2;PMS_P1;PMS_P2;Temp;Humidity;BMP_temperature;BMP_pressure;BME280_temperature;BME280_humidity;BME280_pressure;Samples;Min_cycle;Max_cycle;Signal;HPM_P1;HPM_P2
2022/05/07 00:02:18;;;;;;;0.30;0.20;;;;;;;9.84;98.84;100893.19;4972178;28;20975;-53
2022/05/07 00:04:45;;;;;;;0.30;0.20;;;;;;;9.69;97.96;100894.31;4971702;28;20532;-53
2022/05/07 00:07:12;;;;;;;0.30;0.20;;;;;;;9.73;99.14;100896.91;4972150;28;20485;-53
2022/05/07 00:09:38;;;;;;;0.30;0.20;;;;;;;9.79;99.21;100901.25;4971628;28;20582;-53
2022/05/07 00:12:06;;;;;;;0.30;0.20;;;;;;;9.64;99.48;100898.81;4971898;28;20490;-53
2022/05/07 00:14:34;;;;;;;0.30;0.20;;;;;;;9.76;98.87;100896.84;4971403;28;20497;-53
2022/05/07 00:19:46;;;;;;;0.30;0.20;;;;;;;9.68;99.69;100896.09;5052461;28;20446;-53
2022/05/07 00:22:14;;;;;;;0.40;0.40;;;;;;;9.54;100.00;100891.88;5039998;28;20482;-53
2022/05/07 00:24:41;;;;;;;0.30;0.20;;;;;;;9.58;99.58;100888.28;5050925;28;20956;-53
2022/05/07 00:27:08;;;;;;;0.30;0.20;;;;;;;9.44;100.00;100891.13;5052558;28;21031;-53
2022/05/07 00:29:35;;;;;;;0.30;0.20;;;;;;;9.57;100.00;100892.72;5039387;28;20986;-53
2022/05/07 00:32:02;;;;;;;0.30;0.20;;;;;;;9.53;99.48;100891.00;5052276;28;20487;-53
2022/05/07 00:34:29;;;;;;;0.30;0.30;;;;;;;9.44;100.00;100892.00;5059030;28;20816;-53
2022/05/07 00:36:55;;;;;;;0.40;0.40;;;;;;;9.32;100.00;100891.31;5045352;28;20545;-53
2022/05/07 00:39:24;;;;;;;0.30;0.20;;;;;;;9.28;100.00;100890.47;5052544;28;20521;-53
2022/05/07 00:41:50;;;;;;;0.40;0.30;;;;;;;9.45;100.00;100890.22;5051491;28;20451;-53
2022/05/07 00:44:17;;;;;;;0.30;0.20;;;;;;;9.20;99.78;100890.59;5039809;28;20477;-53
2022/05/07 00:46:45;;;;;;;0.30;0.20;;;;;;;9.00;100.00;100889.09;5052050;28;20473;-53
2022/05/07 00:49:12;;;;;;;0.30;0.20;;;;;;;9.01;100.00;100885.53;5052131;28;20512;-53
2022/05/07 00:51:38;;;;;;;1.27;1.27;;;;;;;9.27;100.00;100896.69;5051266;28;20532;-53
2022/05/07 00:54:08;;;;;;;0.40;0.30;;;;;;;9.07;100.00;100893.44;5039622;28;20821;-53
2022/05/07 00:56:36;;;;;;;0.60;0.60;;;;;;;8.95;100.00;100888.28;5051971;28;20988;-53
2022/05/07 00:59:04;;;;;;;0.30;0.20;;;;;;;8.97;100.00;100890.00;5052089;28;20451;-53
2022/05/07 01:01:30;;;;;;;0.30;0.20;;;;;;;8.97;100.00;100887.34;5051994;28;20442;-53
2022/05/07 01:03:58;;;;;;;0.30;0.20;;;;;;;8.80;100.00;100887.56;5052201;28;20504;-53
2022/05/07 01:06:24;;;;;;;0.40;0.30;;;;;;;9.02;100.00;100888.16;5051981;28;20505;-53
2022/05/07 01:08:51;;;;;;;0.50;0.50;;;;;;;8.92;100.00;100886.53;5051982;28;20490;-53
2022/05/07 01:11:19;;;;;;;0.40;0.33;;;;;;;8.79;100.00;100887.59;5051956;28;20520;-53
2022/05/07 01:13:47;;;;;;;0.30;0.20;;;;;;;8.74;100.00;100886.75;5050720;28;20516;-53
2022/05/07 01:16:14;;;;;;;0.30;0.20;;;;;;;8.85;100.00;100880.41;5051592;28;20467;-53
2022/05/07 01:18:42;;;;;;;0.30;0.20;;;;;;;8.95;100.00;100885.63;5052127;28;20461;-53
2022/05/07 01:21:14;;;;;;;0.83;0.83;;;;;;;8.82;100.00;100883.13;5047988;28;20448;-53
2022/05/07 01:23:43;;;;;;;0.30;0.20;;;;;;;8.68;100.00;100881.53;5043075;28;20525;-53
2022/05/07 01:26:10;;;;;;;0.30;0.20;;;;;;;8.82;100.00;100876.94;5051716;28;20528;-53
2022/05/07 01:28:38;;;;;;;0.30;0.20;;;;;;;8.65;100.00;100876.25;5051445;28;20491;-53
2022/05/07 01:31:05;;;;;;;0.30;0.20;;;;;;;8.82;100.00;100877.81;5051715;28;20971;-53
2022/05/07 01:33:34;;;;;;;0.30;0.20;;;;;;;8.61;100.00;100876.28;5051851;28;20524;-53
2022/05/07 01:36:02;;;;;;;0.30;0.20;;;;;;;8.69;100.00;100878.84;5058912;28;20972;-53
2022/05/07 01:38:30;;;;;;;0.30;0.20;;;;;;;8.67;100.00;100877.13;5044806;28;20935;-53
2022/05/07 01:40:56;;;;;;;0.30;0.20;;;;;;;8.69;100.00;100876.19;5045997;28;20880;-53
2022/05/07 01:43:25;;;;;;;0.30;0.20;;;;;;;8.75;100.00;100877.88;5038408;28;20486;-53
2022/05/07 01:45:52;;;;;;;0.30;0.20;;;;;;;8.58;100.00;100878.97;5038451;28;21148;-53
2022/05/07 01:48:19;;;;;;;0.30;0.20;;;;;;;8.50;100.00;100886.13;5051579;28;20500;-53
2022/05/07 01:50:46;;;;;;;0.30;0.20;;;;;;;8.53;100.00;100883.44;5051450;28;20454;-53
2022/05/07 01:53:14;;;;;;;0.30;0.20;;;;;;;8.47;100.00;100878.19;5038733;28;20483;-53
2022/05/07 01:55:41;;;;;;;0.30;0.20;;;;;;;8.49;100.00;100891.41;5042872;28;20563;-53
2022/05/07 01:58:08;;;;;;;0.30;0.20;;;;;;;8.49;100.00;100887.00;5055446;28;20481;-53
2022/05/07 02:00:36;;;;;;;0.30;0.20;;;;;;;8.50;100.00;100882.63;5055393;28;20496;-53
2022/05/07 02:03:02;;;;;;;0.37;0.30;;;;;;;8.43;100.00;100886.19;5055194;28;20503;-53
2022/05/07 02:05:29;;;;;;;0.30;0.20;;;;;;;8.27;100.00;100880.16;5055096;28;21055;-53
2022/05/07 02:07:57;;;;;;;0.30;0.20;;;;;;;8.19;100.00;100880.22;5055222;28;20965;-53
2022/05/07 02:10:24;;;;;;;0.30;0.20;;;;;;;8.19;100.00;100884.63;5055131;28;20462;-53
2022/05/07 02:12:52;;;;;;;0.40;0.40;;;;;;;8.37;100.00;100878.34;5054929;28;21019;-53
2022/05/07 02:15:18;;;;;;;0.40;0.30;;;;;;;8.07;100.00;100882.97;5055181;28;20478;-53
2022/05/07 02:17:45;;;;;;;0.30;0.20;;;;;;;8.30;100.00;100877.47;5055156;28;20516;-53
2022/05/07 02:20:12;;;;;;;0.40;0.20;;;;;;;8.31;100.00;100876.56;5055021;28;20446;-53
2022/05/07 02:22:38;;;;;;;0.30;0.20;;;;;;;8.12;100.00;100870.59;5037696;28;20451;-53
2022/05/07 02:25:06;;;;;;;0.63;0.63;;;;;;;8.11;100.00;100857.38;5054578;28;20470;-53
2022/05/07 02:27:32;;;;;;;0.30;0.20;;;;;;;8.16;100.00;100867.00;5054793;28;20817;-53
2022/05/07 02:29:59;;;;;;;0.37;0.23;;;;;;;7.95;100.00;100868.09;5054940;28;20497;-53
2022/05/07 02:32:27;;;;;;;0.40;0.40;;;;;;;7.90;100.00;100869.88;5054596;28;20926;-53
2022/05/07 02:34:53;;;;;;;0.40;0.40;;;;;;;7.83;100.00;100870.84;5063732;28;20859;-53
2022/05/07 02:37:20;;;;;;;0.30;0.20;;;;;;;7.87;100.00;100867.25;5043966;28;20451;-53
2022/05/07 02:39:48;;;;;;;0.30;0.20;;;;;;;8.04;100.00;100867.13;5054873;28;20508;-53
2022/05/07 02:45:01;;;;;;;0.30;0.20;;;;;;;8.09;100.00;100878.56;5048038;28;20497;-53
2022/05/07 02:47:29;;;;;;;0.30;0.20;;;;;;;7.89;100.00;100872.53;5054407;28;20509;-53
2022/05/07 02:49:55;;;;;;;0.30;0.20;;;;;;;7.98;100.00;100878.66;5054020;28;20446;-53
2022/05/07 02:52:23;;;;;;;0.30;0.20;;;;;;;7.71;100.00;100873.56;5047215;28;20492;-52
2022/05/07 02:54:49;;;;;;;0.30;0.20;;;;;;;7.78;100.00;100869.97;5034346;28;20478;-52
2022/05/07 02:57:16;;;;;;;0.30;0.20;;;;;;;8.04;100.00;100875.06;5041594;28;20810;-53
2022/05/07 02:59:44;;;;;;;0.33;0.20;;;;;;;7.98;100.00;100862.75;5053906;28;20465;-53
2022/05/07 03:02:10;;;;;;;0.40;0.40;;;;;;;8.13;100.00;100868.81;5054071;28;20478;-53
2022/05/07 03:04:37;;;;;;;0.30;0.20;;;;;;;7.98;100.00;100860.13;5052789;28;20485;-53
2022/05/07 03:07:04;;;;;;;0.30;0.20;;;;;;;7.86;100.00;100862.88;5036325;28;20467;-53
2022/05/07 03:09:30;;;;;;;3.77;1.40;;;;;;;7.86;100.00;100862.00;5053894;28;20482;-53
2022/05/07 03:11:57;;;;;;;0.30;0.27;;;;;;;7.95;100.00;100870.75;5054153;28;20512;-53
2022/05/07 03:14:25;;;;;;;0.40;0.30;;;;;;;8.15;100.00;100870.53;5053772;28;20454;-53
2022/05/07 03:16:51;;;;;;;2.40;1.07;;;;;;;8.08;100.00;100860.00;5053723;28;20529;-53
2022/05/07 03:19:18;;;;;;;0.30;0.20;;;;;;;8.05;100.00;100868.88;5053931;28;20876;-53
2022/05/07 03:21:46;;;;;;;0.40;0.30;;;;;;;7.85;100.00;100870.81;5054136;28;20451;-53
2022/05/07 03:24:13;;;;;;;0.30;0.20;;;;;;;7.81;100.00;100867.34;5040250;28;20929;-53
2022/05/07 03:26:40;;;;;;;0.30;0.20;;;;;;;7.74;100.00;100868.25;5053661;28;20536;-53
2022/05/07 03:29:07;;;;;;;0.30;0.20;;;;;;;7.82;100.00;100874.38;5053544;28;20451;-53
2022/05/07 03:31:34;;;;;;;0.30;0.30;;;;;;;7.70;100.00;100866.53;5053629;28;20494;-53
2022/05/07 03:34:01;;;;;;;0.30;0.20;;;;;;;7.85;100.00;100877.00;5038820;28;20482;-53
2022/05/07 03:36:29;;;;;;;0.43;0.40;;;;;;;7.53;100.00;100869.28;5052907;28;20514;-53
2022/05/07 03:38:56;;;;;;;0.30;0.20;;;;;;;7.38;100.00;100875.53;5050472;28;20474;-53
2022/05/07 03:41:22;;;;;;;0.40;0.30;;;;;;;7.49;100.00;100866.66;5053465;28;20463;-53
2022/05/07 03:43:49;;;;;;;0.30;0.20;;;;;;;7.50;100.00;100874.59;5040160;28;20508;-53
2022/05/07 03:46:16;;;;;;;0.40;0.33;;;;;;;7.47;100.00;100879.03;5053159;28;20471;-53
2022/05/07 03:48:43;;;;;;;0.40;0.40;;;;;;;7.56;100.00;100876.34;5053062;28;20462;-53
2022/05/07 03:51:09;;;;;;;0.30;0.20;;;;;;;7.43;100.00;100873.75;5053071;28;20496;-53
2022/05/07 03:53:36;;;;;;;0.30;0.20;;;;;;;7.48;100.00;100879.00;5048047;28;20570;-53
2022/05/07 03:56:06;;;;;;;0.50;0.50;;;;;;;7.53;100.00;100874.56;5045215;28;20471;-53
2022/05/07 03:58:33;;;;;;;0.50;0.40;;;;;;;7.62;100.00;100874.50;5052971;28;20451;-53
2022/05/07 04:01:00;;;;;;;0.40;0.30;;;;;;;7.43;100.00;100880.81;5052892;28;20861;-53
2022/05/07 04:03:29;;;;;;;0.30;0.20;;;;;;;7.36;100.00;100874.69;5053072;28;20545;-53
2022/05/07 04:05:56;;;;;;;0.30;0.20;;;;;;;7.42;100.00;100876.44;5052981;28;20514;-53
2022/05/07 04:08:23;;;;;;;0.30;0.20;;;;;;;7.38;100.00;100879.94;5052983;28;20490;-53
2022/05/07 04:10:50;;;;;;;0.30;0.20;;;;;;;7.46;100.00;100882.56;5052764;28;20488;-53
2022/05/07 04:13:17;;;;;;;0.40;0.30;;;;;;;7.61;100.00;100878.03;5052573;28;20522;-53
2022/05/07 04:15:45;;;;;;;0.30;0.20;;;;;;;7.54;100.00;100884.28;5052293;28;20517;-52
2022/05/07 04:18:12;;;;;;;0.30;0.20;;;;;;;7.58;100.00;100874.56;5052906;28;20500;-52
2022/05/07 04:20:39;;;;;;;0.30;0.20;;;;;;;7.61;100.00;100882.47;5052021;28;20875;-53
2022/05/07 04:23:06;;;;;;;0.30;0.20;;;;;;;7.66;100.00;100884.16;5040154;28;20446;-53
2022/05/07 04:25:38;;;;;;;0.30;0.20;;;;;;;7.77;100.00;100881.44;5052304;28;20497;-53
2022/05/07 04:28:05;;;;;;;0.40;0.30;;;;;;;7.70;100.00;100885.06;5053101;28;20474;-52
2022/05/07 04:30:32;;;;;;;0.30;0.20;;;;;;;7.78;100.00;100888.50;5052624;28;20453;-53
2022/05/07 04:32:58;;;;;;;0.30;0.20;;;;;;;7.95;100.00;100896.34;5052734;28;20486;-53
2022/05/07 04:35:25;;;;;;;0.30;0.20;;;;;;;7.89;100.00;100897.25;5064496;28;20491;-53
2022/05/07 04:37:51;;;;;;;0.30;0.20;;;;;;;7.95;100.00;100889.28;5040257;28;20451;-53
2022/05/07 04:40:18;;;;;;;0.40;0.40;;;;;;;8.05;100.00;100895.34;5052272;28;20478;-53
2022/05/07 04:42:45;;;;;;;3.10;1.63;;;;;;;8.18;100.00;100890.81;5044433;28;20517;-53
2022/05/07 04:45:11;;;;;;;0.40;0.30;;;;;;;8.54;100.00;100890.50;5047233;28;20855;-53
2022/05/07 04:47:38;;;;;;;0.30;0.20;;;;;;;9.43;100.00;100889.38;5052416;28;20459;-53
2022/05/07 04:50:05;;;;;;;0.40;0.30;;;;;;;10.06;97.60;100890.16;5052430;28;20446;-53
2022/05/07 04:52:32;;;;;;;0.30;0.20;;;;;;;10.78;94.73;100896.84;5043944;28;20491;-53
2022/05/07 04:55:01;;;;;;;0.30;0.20;;;;;;;11.28;91.53;100889.63;5046474;28;20458;-53
2022/05/07 04:57:28;;;;;;;0.33;0.20;;;;;;;11.55;90.58;100893.47;5052257;28;20447;-53
2022/05/07 04:59:54;;;;;;;0.30;0.20;;;;;;;11.86;88.81;100888.31;5052060;28;20451;-53
2022/05/07 05:02:22;;;;;;;0.30;0.30;;;;;;;12.12;88.33;100896.53;5052163;28;20451;-53
2022/05/07 05:04:48;;;;;;;0.60;0.60;;;;;;;12.25;87.64;100891.78;5051777;28;20447;-53
2022/05/07 05:07:15;;;;;;;1.30;1.20;;;;;;;12.46;86.70;100893.84;5051888;28;20835;-53
2022/05/07 05:09:42;;;;;;;0.63;0.63;;;;;;;12.59;86.28;100899.75;5051752;28;20528;-53
2022/05/07 05:12:09;;;;;;;0.40;0.30;;;;;;;12.66;85.27;100900.47;5051959;28;20857;-53
2022/05/07 05:17:20;;;;;;;0.40;0.30;;;;;;;13.13;84.05;100900.91;5052076;28;20505;-53
2022/05/07 05:19:47;;;;;;;0.40;0.30;;;;;;;13.41;84.16;100904.53;5051567;28;20538;-53
2022/05/07 05:22:14;;;;;;;0.70;0.57;;;;;;;13.38;84.02;100901.97;5040269;28;20486;-53
2022/05/07 05:24:40;;;;;;;0.37;0.30;;;;;;;13.57;84.21;100903.16;5050130;28;20476;-53
2022/05/07 05:27:07;;;;;;;0.30;0.20;;;;;;;13.77;82.53;100910.53;5051903;28;20501;-53
2022/05/07 05:29:33;;;;;;;0.37;0.30;;;;;;;13.88;81.93;100918.22;5054811;28;20495;-53
2022/05/07 05:32:00;;;;;;;0.40;0.40;;;;;;;14.07;81.70;100914.03;5055753;28;20516;-53
2022/05/07 05:34:27;;;;;;;0.40;0.30;;;;;;;14.38;80.94;100923.69;5062125;28;20481;-53
2022/05/07 05:36:54;;;;;;;0.40;0.30;;;;;;;14.41;81.42;100927.16;5048474;28;20526;-53
2022/05/07 05:39:21;;;;;;;3.50;0.60;;;;;;;14.36;81.51;100921.06;5035710;28;20459;-53
2022/05/07 05:41:47;;;;;;;0.33;0.20;;;;;;;14.27;81.53;100928.53;5048770;28;20458;-53
2022/05/07 05:44:14;;;;;;;1.10;1.03;;;;;;;14.60;81.05;100929.22;5042561;28;20447;-53
2022/05/07 05:46:40;;;;;;;0.30;0.20;;;;;;;14.75;80.41;100928.66;5055423;28;20504;-54
2022/05/07 05:49:07;;;;;;;0.30;0.30;;;;;;;14.51;79.97;100925.03;5055787;28;21000;-54
2022/05/07 05:51:34;;;;;;;0.40;0.30;;;;;;;14.58;81.15;100929.28;5054728;28;20451;-54
2022/05/07 05:54:00;;;;;;;0.87;0.87;;;;;;;14.68;80.07;100925.34;5043225;28;20525;-54
2022/05/07 05:56:27;;;;;;;1.60;1.50;;;;;;;14.79;79.00;100927.63;5055206;28;20526;-54
2022/05/07 05:58:55;;;;;;;0.30;0.20;;;;;;;14.90;79.52;100922.75;5055390;28;20516;-53
2022/05/07 06:01:22;;;;;;;0.30;0.20;;;;;;;14.92;79.03;100925.38;5055011;28;20454;-54
2022/05/07 06:03:49;;;;;;;4.80;1.90;;;;;;;15.03;79.24;100923.19;5055080;28;20959;-54
2022/05/07 06:06:15;;;;;;;1.23;1.23;;;;;;;15.27;77.97;100919.59;5041822;28;20879;-54
2022/05/07 06:08:42;;;;;;;0.40;0.40;;;;;;;14.91;78.83;100916.47;5055050;28;20463;-54
2022/05/07 06:11:09;;;;;;;0.40;0.40;;;;;;;14.77;79.20;100916.09;5055546;28;20492;-54
2022/05/07 06:13:36;;;;;;;0.40;0.30;;;;;;;15.04;79.16;100925.81;5054965;28;20486;-54
2022/05/07 06:16:02;;;;;;;0.50;0.47;;;;;;;15.15;78.97;100919.19;5054621;28;20475;-54
2022/05/07 06:18:29;;;;;;;0.30;0.20;;;;;;;15.02;79.32;100921.44;5055120;28;20451;-53
2022/05/07 06:20:56;;;;;;;0.30;0.20;;;;;;;14.92;79.88;100923.59;5052589;28;20508;-53
2022/05/07 06:23:22;;;;;;;1.60;1.50;;;;;;;15.16;80.14;100923.63;5044330;28;20447;-53
2022/05/07 06:28:34;;;;;;;3.23;0.97;;;;;;;15.15;79.23;100922.75;5054794;28;20509;-53
2022/05/07 06:31:00;;;;;;;0.63;0.63;;;;;;;15.28;79.88;100928.53;5054637;28;20450;-54
2022/05/07 06:33:28;;;;;;;0.40;0.30;;;;;;;14.98;80.16;100922.50;5054890;28;20490;-54
2022/05/07 06:35:55;;;;;;;0.40;0.40;;;;;;;14.87;80.91;100925.56;5054591;28;20521;-54
2022/05/07 06:38:22;;;;;;;0.30;0.20;;;;;;;15.22;79.84;100934.13;5054637;28;20458;-54
2022/05/07 06:40:50;;;;;;;0.40;0.30;;;;;;;15.14;79.32;100928.16;5054229;28;20477;-53
2022/05/07 06:43:17;;;;;;;1.23;1.23;;;;;;;15.14;78.98;100925.47;5034463;28;20439;-54
2022/05/07 06:45:43;;;;;;;0.70;0.67;;;;;;;15.09;79.85;100923.88;5053608;28;20524;-53
2022/05/07 06:48:11;;;;;;;0.83;0.83;;;;;;;15.65;79.14;100917.31;5036856;28;20487;-56
2022/05/07 06:50:39;;;;;;;6.83;1.43;;;;;;;15.17;80.86;100922.69;5054169;28;20828;-52
2022/05/07 06:53:06;;;;;;;0.80;0.80;;;;;;;15.41;80.59;100922.63;5040890;28;20489;-53
2022/05/07 06:55:54;;;;;;;0.70;0.70;;;;;;;15.83;78.50;100919.25;5054262;28;20471;-53
2022/05/07 06:58:20;;;;;;;0.30;0.20;;;;;;;15.40;78.53;100917.34;5054151;28;20508;-52
2022/05/07 07:00:51;;;;;;;0.40;0.37;;;;;;;15.92;77.88;100926.06;5054039;28;20446;-53
2022/05/07 07:03:18;;;;;;;0.40;0.30;;;;;;;16.11;76.20;100924.34;5053934;28;20451;-53
2022/05/07 07:05:45;;;;;;;0.30;0.20;;;;;;;15.92;76.87;100921.56;5053926;28;20474;-53
2022/05/07 07:08:13;;;;;;;28.23;1.07;;;;;;;16.39;75.29;100921.38;5053788;28;20475;-53
2022/05/07 07:10:41;;;;;;;0.37;0.20;;;;;;;17.18;72.66;100923.28;5053967;28;20512;-53
2022/05/07 07:13:08;;;;;;;0.70;0.70;;;;;;;17.05;72.61;100921.22;5052626;28;20455;-53
2022/05/07 07:15:41;;;;;;;2.30;1.13;;;;;;;17.05;72.24;100915.84;5053900;28;20471;-53
2022/05/07 07:18:11;;;;;;;0.40;0.30;;;;;;;17.26;71.67;100927.41;5054228;28;20450;-53
2022/05/07 07:20:42;;;;;;;0.70;0.70;;;;;;;17.42;71.45;100915.91;5053899;28;20451;-53
2022/05/07 07:23:13;;;;;;;3.43;2.50;;;;;;;17.08;71.58;100918.38;5040854;28;20459;-53
2022/05/07 07:25:42;;;;;;;7.60;1.90;;;;;;;17.46;72.60;100922.00;5035948;28;20479;-53
2022/05/07 07:28:10;;;;;;;0.50;0.40;;;;;;;17.03;74.13;100917.75;5053827;28;20451;-53
2022/05/07 07:30:38;;;;;;;0.40;0.20;;;;;;;17.02;73.77;100918.69;5053462;28;20505;-53
2022/05/07 07:33:06;;;;;;;0.70;0.70;;;;;;;17.19;74.30;100916.09;5053412;28;20967;-53
2022/05/07 07:35:33;;;;;;;0.40;0.20;;;;;;;16.99;74.50;100916.97;5064578;28;20562;-55
2022/05/07 07:38:00;;;;;;;0.43;0.40;;;;;;;17.53;72.17;100915.38;5042757;28;20462;-55
2022/05/07 07:40:27;;;;;;;0.40;0.37;;;;;;;17.26;73.35;100913.97;5053473;28;20995;-56
2022/05/07 07:42:53;;;;;;;0.57;0.57;;;;;;;17.70;72.30;100915.50;5043922;28;20517;-56
2022/05/07 07:48:05;;;;;;;1.23;1.13;;;;;;;17.53;73.00;100915.38;5053336;28;20917;-55
2022/05/07 07:50:34;;;;;;;0.40;0.20;;;;;;;17.71;71.95;100914.56;5052498;28;20455;-55
2022/05/07 07:53:06;;;;;;;6.23;1.17;;;;;;;18.05;71.67;100911.06;5040506;28;20452;-55
2022/05/07 07:55:34;;;;;;;8.03;0.70;;;;;;;17.91;71.78;100918.09;5039900;28;20513;-55
2022/05/07 07:58:02;;;;;;;0.40;0.20;;;;;;;18.24;71.57;100912.88;5053100;28;20945;-55
2022/05/07 08:00:30;;;;;;;1.30;1.23;;;;;;;18.28;71.47;100909.06;5053002;28;20896;-55
2022/05/07 08:02:59;;;;;;;23.67;1.03;;;;;;;18.69;69.76;100903.41;5053002;28;20485;-55
2022/05/07 08:05:27;;;;;;;7.93;1.70;;;;;;;18.53;69.37;100904.19;5052905;28;20470;-55
2022/05/07 08:13:26;;;;;;;4.20;2.63;;;;;;;18.87;69.19;100897.91;5052952;28;20521;-55
2022/05/07 08:15:53;;;;;;;0.63;0.57;;;;;;;18.70;68.85;100897.94;5051209;28;20837;-55
2022/05/07 08:18:19;;;;;;;0.40;0.20;;;;;;;18.88;69.91;100904.16;5052837;28;20497;-55
2022/05/07 08:20:49;;;;;;;0.70;0.70;;;;;;;19.12;69.08;100907.38;5051467;28;20454;-53
2022/05/07 08:23:16;;;;;;;0.70;0.70;;;;;;;18.75;69.43;100905.78;5040714;28;20504;-52
2022/05/07 08:25:42;;;;;;;0.60;0.60;;;;;;;19.00;68.32;100903.53;5052558;28;20532;-52
2022/05/07 08:28:09;;;;;;;1.03;1.03;;;;;;;19.47;68.30;100902.75;5052442;28;21002;-55
2022/05/07 08:30:41;;;;;;;0.60;0.60;;;;;;;19.15;68.39;100894.59;5052175;28;20455;-55
2022/05/07 08:33:08;;;;;;;0.40;0.20;;;;;;;19.17;68.48;100905.28;5051167;28;20572;-55
2022/05/07 08:35:35;;;;;;;0.50;0.40;;;;;;;19.62;67.11;100893.84;5061623;28;20498;-55
2022/05/07 08:38:01;;;;;;;0.97;0.97;;;;;;;19.52;67.22;100889.88;5041744;28;20451;-55
2022/05/07 08:40:28;;;;;;;0.77;0.77;;;;;;;19.88;66.81;100896.91;5052303;28;20455;-52
2022/05/07 08:42:56;;;;;;;0.40;0.20;;;;;;;19.56;67.67;100894.19;5052193;28;20504;-53
2022/05/07 08:45:23;;;;;;;0.40;0.20;;;;;;;19.79;66.85;100888.34;5051893;28;20505;-53
2022/05/07 08:47:53;;;;;;;0.40;0.30;;;;;;;20.01;66.47;100895.19;5052112;28;20454;-52
2022/05/07 08:50:21;;;;;;;0.50;0.30;;;;;;;20.52;63.85;100885.88;5051801;28;20447;-52
2022/05/07 08:52:49;;;;;;;0.57;0.57;;;;;;;20.12;65.91;100890.91;5041788;28;20513;-52
2022/05/07 08:55:20;;;;;;;4.30;1.43;;;;;;;20.30;65.53;100888.97;5049280;28;20495;-52
2022/05/07 08:57:48;;;;;;;0.50;0.40;;;;;;;20.60;62.66;100889.00;5052077;28;20455;-53
2022/05/07 09:00:18;;;;;;;1.77;1.70;;;;;;;20.67;62.50;100886.78;5051814;28;20447;-52
2022/05/07 09:02:48;;;;;;;0.50;0.43;;;;;;;20.80;61.98;100882.38;5051767;28;20447;-52
2022/05/07 09:05:20;;;;;;;0.40;0.30;;;;;;;21.05;61.13;100886.25;5051774;28;20502;-52
2022/05/07 09:07:53;;;;;;;0.40;0.30;;;;;;;21.01;60.75;100880.19;5051791;28;20451;-53
2022/05/07 09:10:20;;;;;;;0.40;0.20;;;;;;;21.03;61.17;100875.53;5050616;28;20490;-52
2022/05/07 09:12:46;;;;;;;0.40;0.20;;;;;;;20.76;60.20;100878.13;5051875;28;20447;-53
2022/05/07 09:15:13;;;;;;;0.83;0.83;;;;;;;20.92;59.93;100876.22;5051456;28;20999;-53
2022/05/07 09:17:39;;;;;;;0.40;0.20;;;;;;;21.14;58.45;100877.59;5051743;28;20451;-52
2022/05/07 09:20:14;;;;;;;0.40;0.20;;;;;;;21.51;58.94;100878.81;5051892;28;20524;-53
2022/05/07 09:22:48;;;;;;;0.40;0.30;;;;;;;22.28;56.85;100871.94;5034990;28;20446;-52
2022/05/07 09:25:21;;;;;;;0.50;0.47;;;;;;;21.67;57.42;100881.41;5051687;28;20544;-52
2022/05/07 09:27:51;;;;;;;0.40;0.23;;;;;;;21.61;55.32;100873.69;5051485;28;20509;-52
2022/05/07 09:30:24;;;;;;;0.50;0.40;;;;;;;21.43;54.31;100884.75;5051831;28;20451;-52
2022/05/07 09:32:52;;;;;;;0.60;0.50;;;;;;;21.71;54.03;100877.53;5051696;28;20497;-52
2022/05/07 09:38:06;;;;;;;0.50;0.37;;;;;;;21.80;52.20;100869.69;5041406;28;20862;-52
2022/05/07 09:40:37;;;;;;;0.50;0.50;;;;;;;22.16;48.69;100873.63;5051801;28;20920;-52
2022/05/07 09:43:05;;;;;;;1.03;1.03;;;;;;;22.44;48.10;100872.63;5040774;28;20898;-52
2022/05/07 09:45:32;;;;;;;0.40;0.20;;;;;;;22.72;47.47;100864.31;5031359;28;20846;-52
2022/05/07 09:48:02;;;;;;;0.53;0.50;;;;;;;22.40;44.59;100866.56;5051625;28;20447;-52
2022/05/07 09:58:53;;;;;;;0.40;0.20;;;;;;;22.29;43.14;100865.56;5031557;28;20452;-52
2022/05/07 10:01:53;;;;;;;0.40;0.20;;;;;;;22.42;43.90;100864.59;5045130;28;20490;-52
2022/05/07 10:04:34;;;;;;;0.57;0.50;;;;;;;22.17;44.87;100857.28;5050411;28;20446;-52
2022/05/07 10:07:24;;;;;;;0.40;0.30;;;;;;;22.40;42.64;100854.84;5051358;28;20462;-52
2022/05/07 10:10:17;;;;;;;12.93;0.87;;;;;;;22.52;42.12;100851.31;5040556;28;20516;-52
2022/05/07 10:12:47;;;;;;;0.40;0.30;;;;;;;22.54;43.36;100853.91;5051507;28;20447;-52
2022/05/07 10:15:19;;;;;;;0.40;0.30;;;;;;;22.83;42.83;100844.63;5036184;28;20556;-52
2022/05/07 10:17:58;;;;;;;0.40;0.20;;;;;;;22.78;42.51;100830.50;5055083;28;20544;-52
2022/05/07 10:20:24;;;;;;;0.40;0.20;;;;;;;23.03;41.86;100833.25;5055280;28;20442;-52
2022/05/07 10:22:55;;;;;;;6.70;2.63;;;;;;;23.07;41.65;100838.44;5041723;28;20819;-52
2022/05/07 10:25:22;;;;;;;0.40;0.20;;;;;;;23.02;42.60;100836.91;5037125;28;20470;-52
2022/05/07 10:27:51;;;;;;;0.40;0.20;;;;;;;23.38;42.10;100832.50;5054682;28;20446;-53
2022/05/07 10:30:23;;;;;;;2.00;1.40;;;;;;;23.01;40.35;100834.31;5037108;28;20500;-52
2022/05/07 10:33:01;;;;;;;0.40;0.20;;;;;;;23.20;41.71;100829.31;5055178;28;20447;-52
2022/05/07 10:35:37;;;;;;;0.40;0.30;;;;;;;22.76;38.83;100837.88;5066824;28;20489;-52
2022/05/07 10:38:28;;;;;;;0.40;0.20;;;;;;;22.90;40.46;100836.94;5044058;28;20447;-55
2022/05/07 10:40:55;;;;;;;0.50;0.40;;;;;;;22.40;41.29;100835.88;5054704;28;20439;-53
2022/05/07 10:43:30;;;;;;;0.60;0.60;;;;;;;22.50;43.05;100830.72;5031022;28;20451;-53
2022/05/07 10:46:04;;;;;;;0.40;0.20;;;;;;;22.68;43.53;100824.84;5024831;28;20555;-52
2022/05/07 10:48:52;;;;;;;0.40;0.20;;;;;;;22.91;42.97;100823.28;5023480;28;20922;-52
2022/05/07 10:51:27;;;;;;;1.10;0.70;;;;;;;22.89;42.37;100827.03;5054477;28;20455;-53
2022/05/07 10:54:00;;;;;;;0.63;0.63;;;;;;;22.86;42.01;100824.56;5048465;28;20916;-52
2022/05/07 10:56:28;;;;;;;0.47;0.30;;;;;;;23.02;41.88;100817.91;5048087;28;20466;-52
2022/05/07 10:58:57;;;;;;;2.93;1.20;;;;;;;23.51;41.82;100818.91;5041319;28;20572;-52
2022/05/07 11:01:28;;;;;;;0.40;0.30;;;;;;;22.81;42.73;100815.84;5053882;28;20425;-52
2022/05/07 11:04:03;;;;;;;0.40;0.30;;;;;;;22.61;42.33;100815.41;5053177;28;20462;-59
2022/05/07 11:06:45;;;;;;;1.63;1.53;;;;;;;22.43;42.70;100814.00;5054105;28;20474;-52
2022/05/07 11:09:17;;;;;;;0.40;0.20;;;;;;;22.95;42.19;100804.94;5054255;28;20470;-52
2022/05/07 11:11:54;;;;;;;0.40;0.30;;;;;;;23.02;42.16;100809.78;5053971;28;20528;-52
2022/05/07 11:14:30;;;;;;;0.50;0.30;;;;;;;23.35;41.79;100797.47;5054002;28;20496;-52
2022/05/07 11:16:58;;;;;;;0.40;0.40;;;;;;;23.64;41.46;100804.34;5053888;28;20476;-52
2022/05/07 11:19:35;;;;;;;0.40;0.20;;;;;;;23.20;42.07;100796.75;5053879;28;20463;-52
2022/05/07 11:22:04;;;;;;;0.40;0.30;;;;;;;23.03;42.53;100803.41;5044172;28;20482;-52
2022/05/07 11:24:32;;;;;;;0.40;0.20;;;;;;;23.01;43.03;100805.34;5050365;28;20492;-52
2022/05/07 11:27:05;;;;;;;0.50;0.30;;;;;;;22.96;42.75;100801.22;5052754;28;20474;-52
2022/05/07 11:29:33;;;;;;;0.50;0.40;;;;;;;22.91;41.62;100806.13;5053626;28;20449;-52
2022/05/07 11:32:06;;;;;;;1.17;1.07;;;;;;;22.69;42.32;100799.47;5053494;28;20447;-52
2022/05/07 11:34:34;;;;;;;0.40;0.30;;;;;;;23.20;42.12;100799.47;5061028;28;21025;-52
2022/05/07 11:37:20;;;;;;;0.40;0.20;;;;;;;23.41;40.87;100799.72;5045576;28;20468;-52
2022/05/07 11:39:54;;;;;;;2.50;0.50;;;;;;;23.07;41.54;100798.63;5053633;28;20446;-52
2022/05/07 11:42:27;;;;;;;0.77;0.67;;;;;;;;;;5048957;28;20518;-52
2022/05/07 11:45:25;;;;;;;0.40;0.30;;;;;;;23.14;40.82;100799.03;5048683;28;20467;-52
2022/05/07 11:47:55;;;;;;;1.33;1.13;;;;;;;23.46;42.52;100785.81;5053508;28;20458;-52
2022/05/07 11:50:24;;;;;;;0.40;0.20;;;;;;;23.28;41.14;100786.19;5053165;28;20457;-52
2022/05/07 11:52:52;;;;;;;0.40;0.30;;;;;;;23.02;42.99;100784.50;5041940;28;20513;-51
2022/05/07 11:55:29;;;;;;;0.40;0.20;;;;;;;22.89;41.36;100784.56;5051423;28;20552;-52
2022/05/07 11:57:56;;;;;;;0.50;0.50;;;;;;;23.42;42.04;100787.00;5053105;28;20442;-53
2022/05/07 12:00:23;;;;;;;0.50;0.43;;;;;;;23.04;40.63;100779.88;5035575;28;20520;-52
2022/05/07 12:02:50;;;;;;;0.40;0.20;;;;;;;23.66;40.79;100777.06;5039625;28;20459;-52
2022/05/07 12:05:18;;;;;;;0.40;0.20;;;;;;;23.76;41.17;100774.53;5053209;28;20470;-53